Spirit Lake, Idaho
Current Conditions -  °F | °C
As of 4:15 PM on Wednesday 22 Oct 2014 (Local Time) from KCOE Reporting Station
Overcast Overcast  
Wind Chill: 57°   Ceiling: 5000
Heat Index: 57°   Visibility: 10mi
Dew Point: 41°   Wind: 5mph
Humidity: 55%   Direction: 170°S
Pressure: 29.84"   Gusts: NA
Location:  47.97°N, 116.87°W
Report Text: KCOE 222315Z AUTO 17004KT 10SM OVC050 14/05 A2984 RMK AO1
Loading
Personal Weather Stations






























Interactive Weather Map
Tropical Storm Tracking
New forecast layout! Learn more

10-Day Weather Forecast

Advertisements
Track Severe Weather on mobile